createdAt,value
2022-08-25T00:00:44.389Z,99524.06
2022-08-25T00:01:50.465Z,99519.53
2022-08-25T00:02:56.659Z,99522.19
2022-08-25T00:04:01.804Z,99520.34
2022-08-25T00:05:04.672Z,99514.00
2022-08-25T00:06:07.311Z,99514.00
2022-08-25T00:07:08.929Z,99516.66
2022-08-25T00:08:10.528Z,99524.69
2022-08-25T00:09:15.189Z,99523.66
2022-08-25T00:10:16.807Z,99522.84
2022-08-25T00:11:23.856Z,99522.00
2022-08-25T00:12:25.516Z,99515.66
2022-08-25T00:13:28.667Z,99526.91
2022-08-25T00:14:35.617Z,99519.09
2022-08-25T00:15:38.537Z,99518.25
2022-08-25T00:16:40.499Z,99519.28
2022-08-25T00:17:42.112Z,99514.78
2022-08-25T00:18:45.940Z,99522.56
2022-08-25T00:19:47.597Z,99513.75
2022-08-25T00:20:49.792Z,99517.06
2022-08-25T00:21:52.035Z,99516.22
2022-08-25T00:22:54.365Z,99507.56
2022-08-25T00:23:55.951Z,99517.44
2022-08-25T00:24:57.576Z,99509.44
2022-08-25T00:25:59.421Z,99508.59
2022-08-25T00:27:01.029Z,99514.94
2022-08-25T00:28:07.821Z,99512.03
2022-08-25T00:29:11.073Z,99513.56
2022-08-25T00:30:13.183Z,99505.72
2022-08-25T00:31:19.734Z,99510.66
2022-08-25T00:32:21.429Z,99500.81
2022-08-25T00:33:23.075Z,99502.66
2022-08-25T00:34:32.090Z,99502.66
2022-08-25T00:35:33.675Z,99502.03
2022-08-25T00:36:35.338Z,99501.84
2022-08-25T00:37:36.970Z,99506.34
2022-08-25T00:38:43.372Z,99500.81
2022-08-25T00:39:45.786Z,99500.63
2022-08-25T00:40:48.827Z,99505.72
2022-08-25T00:41:52.597Z,99498.28
2022-08-25T00:42:54.662Z,99507.47
2022-08-25T00:43:59.189Z,99504.81
2022-08-25T00:45:00.785Z,99503.78
2022-08-25T00:46:02.404Z,99500.94
2022-08-25T00:47:05.573Z,99508.94
2022-08-25T00:48:07.316Z,99503.03
2022-08-25T00:49:24.711Z,99505.91
2022-08-25T00:50:28.936Z,99508.38
2022-08-25T00:51:38.298Z,99508.22
2022-08-25T00:52:45.142Z,99508.00
2022-08-25T00:53:47.918Z,99505.53
2022-08-25T00:55:07.937Z,99510.03
2022-08-25T00:56:12.954Z,99503.84
2022-08-25T00:57:18.212Z,99501.38
2022-08-25T00:58:26.628Z,99506.75
2022-08-25T00:59:29.005Z,99504.25
2022-08-25T01:00:37.655Z,99508.78
2022-08-25T01:01:39.480Z,99506.91
2022-08-25T01:02:41.572Z,99509.59
2022-08-25T01:03:43.202Z,99507.94
2022-08-25T01:04:49.087Z,99516.97
2022-08-25T01:05:52.332Z,99511.16
2022-08-25T01:06:54.600Z,99514.22
2022-08-25T01:08:02.423Z,99507.78
2022-08-25T01:09:04.925Z,99509.38
2022-08-25T01:10:07.859Z,99506.25
2022-08-25T01:11:11.490Z,99508.28
2022-08-25T01:12:13.434Z,99507.47
2022-08-25T01:13:26.387Z,99505.78
2022-08-25T01:14:30.871Z,99500.25
2022-08-25T01:15:34.304Z,99498.97
2022-08-25T01:16:40.587Z,99494.81
2022-08-25T01:17:57.765Z,99502.66
2022-08-25T01:19:01.858Z,99493.97
2022-08-25T01:20:04.378Z,99505.31
2022-08-25T01:21:06.115Z,99503.84
2022-08-25T01:22:08.110Z,99498.50
2022-08-25T01:23:09.737Z,99492.06
2022-08-25T01:24:20.744Z,99500.72
2022-08-25T01:25:27.566Z,99500.81
2022-08-25T01:26:32.193Z,99500.63
2022-08-25T01:27:33.834Z,99494.13
2022-08-25T01:28:36.200Z,99504.06
2022-08-25T01:29:38.844Z,99501.41
2022-08-25T01:30:41.544Z,99494.41
2022-08-25T01:31:43.260Z,99495.50
2022-08-25T01:32:45.382Z,99498.44
2022-08-25T01:33:46.980Z,99503.06
2022-08-25T01:34:48.608Z,99501.03
2022-08-25T01:35:54.200Z,99500.22
2022-08-25T01:36:57.447Z,99495.03
2022-08-25T01:38:00.885Z,99495.78
2022-08-25T01:39:04.680Z,99494.78
2022-08-25T01:40:07.141Z,99491.75
2022-08-25T01:41:08.749Z,99493.84
2022-08-25T01:42:23.754Z,99498.66
2022-08-25T01:43:45.601Z,99501.94
2022-08-25T01:44:48.223Z,99494.41
2022-08-25T01:45:49.856Z,99497.50
2022-08-25T01:46:53.004Z,99499.53
2022-08-25T01:47:54.597Z,99499.16
2022-08-25T01:48:56.204Z,99503.31
2022-08-25T01:49:57.826Z,99502.50
2022-08-25T01:50:59.614Z,99501.47
2022-08-25T01:52:23.566Z,99501.72
2022-08-25T01:53:27.804Z,99501.72
2022-08-25T01:54:29.421Z,99504.56
2022-08-25T01:55:31.494Z,99503.75
2022-08-25T01:56:33.407Z,99494.28
2022-08-25T01:57:35.139Z,99501.66
2022-08-25T01:58:38.817Z,99497.97
2022-08-25T01:59:40.478Z,99497.97
2022-08-25T02:00:46.523Z,99492.63
2022-08-25T02:01:48.214Z,99491.53
2022-08-25T02:02:52.230Z,99490.72
2022-08-25T02:03:56.560Z,99497.06
2022-08-25T02:04:59.069Z,99495.22
2022-08-25T02:06:01.669Z,99488.59
2022-08-25T02:07:08.068Z,99494.56
2022-08-25T02:08:09.897Z,99489.97
2022-08-25T02:09:15.267Z,99490.16
2022-08-25T02:10:16.866Z,99491.09
2022-08-25T02:11:18.552Z,99494.78
2022-08-25T02:12:20.176Z,99497.63
2022-08-25T02:13:26.679Z,99498.25
2022-08-25T02:14:33.083Z,99503.06
2022-08-25T02:15:34.779Z,99496.69
2022-08-25T02:16:39.140Z,99495.50
2022-08-25T02:17:40.756Z,99489.25
2022-08-25T02:18:42.483Z,99488.59
2022-08-25T02:19:44.095Z,99487.41
2022-08-25T02:20:46.376Z,99490.09
2022-08-25T02:21:48.419Z,99490.09
2022-08-25T02:22:57.092Z,99493.56
2022-08-25T02:23:59.161Z,99496.78
2022-08-25T02:25:02.254Z,99488.78
2022-08-25T02:26:05.158Z,99490.00
2022-08-25T02:27:06.789Z,99487.75
2022-08-25T02:28:09.620Z,99491.00
2022-08-25T02:29:11.282Z,99485.13
2022-08-25T02:30:15.326Z,99489.34
2022-08-25T02:31:18.907Z,99488.16
2022-08-25T02:32:20.521Z,99477.13
2022-08-25T02:33:22.091Z,99486.31
2022-08-25T02:34:23.711Z,99483.38
2022-08-25T02:35:25.283Z,99480.50
2022-08-25T02:36:26.881Z,99479.97
2022-08-25T02:37:28.493Z,99480.44
2022-08-25T02:38:30.748Z,99480.44
2022-08-25T02:39:32.382Z,99481.81
2022-08-25T02:40:34.600Z,99477.94
2022-08-25T02:41:36.633Z,99481.81
2022-08-25T02:42:38.289Z,99477.75
2022-08-25T02:43:45.256Z,99480.69
2022-08-25T02:44:46.861Z,99479.88
2022-08-25T02:45:48.508Z,99478.22
2022-08-25T02:46:50.174Z,99480.69
2022-08-25T02:47:51.752Z,99479.78
2022-08-25T02:48:53.591Z,99475.47
2022-08-25T02:49:55.246Z,99481.81
2022-08-25T02:51:00.269Z,99476.09
2022-08-25T02:52:01.969Z,99466.91
2022-08-25T02:53:05.369Z,99473.91
2022-08-25T02:54:06.968Z,99466.44
2022-08-25T02:55:10.895Z,99474.25
2022-08-25T02:56:14.268Z,99467.91
2022-08-25T02:57:15.893Z,99480.91
2022-08-25T02:58:17.488Z,99471.25
2022-08-25T02:59:19.099Z,99472.69
2022-08-25T03:00:21.313Z,99467.34
2022-08-25T03:01:28.810Z,99464.69
2022-08-25T03:02:30.716Z,99461.75
2022-08-25T03:03:35.200Z,99468.75
2022-08-25T03:04:39.215Z,99466.06
2022-08-25T03:05:41.348Z,99469.38
2022-08-25T03:06:43.003Z,99470.03
2022-08-25T03:07:44.619Z,99463.03
2022-08-25T03:08:46.267Z,99460.56
2022-08-25T03:09:48.838Z,99463.88
2022-08-25T03:10:52.031Z,99463.88
2022-08-25T03:11:53.683Z,99464.50
2022-08-25T03:12:55.279Z,99467.00
2022-08-25T03:13:57.265Z,99466.00
2022-08-25T03:14:58.848Z,99468.44
2022-08-25T03:16:01.614Z,99466.78
2022-08-25T03:17:08.628Z,99464.78
2022-08-25T03:18:10.446Z,99467.44
2022-08-25T03:19:12.042Z,99468.66
2022-08-25T03:20:13.722Z,99477.31
2022-08-25T03:21:16.513Z,99472.34
2022-08-25T03:22:19.171Z,99471.31
2022-08-25T03:23:20.913Z,99468.81
2022-08-25T03:24:23.664Z,99473.78
2022-08-25T03:25:25.253Z,99474.81
2022-08-25T03:26:27.021Z,99468.81
2022-08-25T03:27:29.451Z,99475.09
2022-08-25T03:28:31.239Z,99468.81
2022-08-25T03:29:34.272Z,99474.28
2022-08-25T03:30:35.880Z,99473.97
2022-08-25T03:31:38.408Z,99470.94
2022-08-25T03:32:40.115Z,99476.72
2022-08-25T03:33:42.259Z,99474.38
2022-08-25T03:34:43.820Z,99472.34
2022-08-25T03:35:45.783Z,99464.16
2022-08-25T03:36:49.947Z,99478.94
2022-08-25T03:37:55.966Z,99471.16
2022-08-25T03:38:57.623Z,99472.44
2022-08-25T03:40:04.794Z,99478.31
2022-08-25T03:41:18.111Z,99475.56
2022-08-25T03:42:19.748Z,99474.44
2022-08-25T03:43:21.641Z,99466.34
2022-08-25T03:44:23.305Z,99481.34
2022-08-25T03:45:25.619Z,99476.84
2022-08-25T03:46:31.380Z,99474.81
2022-08-25T03:47:33.041Z,99474.63
2022-08-25T03:48:34.649Z,99477.47
2022-08-25T03:49:36.295Z,99480.16
2022-08-25T03:50:43.329Z,99474.63
2022-08-25T03:51:54.189Z,99472.31
2022-08-25T03:52:56.915Z,99477.84
2022-08-25T03:53:59.451Z,99473.97
2022-08-25T03:55:03.492Z,99474.44
2022-08-25T03:56:05.215Z,99469.94
2022-08-25T03:57:06.817Z,99466.91
2022-08-25T03:58:08.504Z,99466.06
2022-08-25T03:59:10.101Z,99471.69
2022-08-25T04:00:12.090Z,99470.41
2022-08-25T04:01:14.394Z,99465.41
2022-08-25T04:02:17.075Z,99464.41
2022-08-25T04:03:18.808Z,99468.19
2022-08-25T04:04:20.535Z,99463.84
2022-08-25T04:05:22.122Z,99465.97
2022-08-25T04:06:23.768Z,99471.13
2022-08-25T04:07:25.397Z,99472.63
2022-08-25T04:08:26.977Z,99476.94
2022-08-25T04:09:28.590Z,99474.06
2022-08-25T04:10:32.464Z,99470.38
2022-08-25T04:11:34.104Z,99474.38
2022-08-25T04:12:36.606Z,99474.53
2022-08-25T04:13:38.198Z,99474.06
2022-08-25T04:14:39.780Z,99472.88
2022-08-25T04:15:43.404Z,99473.72
2022-08-25T04:16:45.642Z,99472.50
2022-08-25T04:17:47.281Z,99478.31
2022-08-25T04:18:53.722Z,99474.84
2022-08-25T04:19:55.354Z,99475.00
2022-08-25T04:21:07.588Z,99474.00
2022-08-25T04:22:09.370Z,99470.31
2022-08-25T04:23:11.019Z,99473.63
2022-08-25T04:24:13.808Z,99469.75
2022-08-25T04:25:15.425Z,99470.56
2022-08-25T04:26:20.583Z,99477.38
2022-08-25T04:27:22.163Z,99467.56
2022-08-25T04:28:23.766Z,99475.34
2022-08-25T04:29:26.477Z,99471.88
2022-08-25T04:30:28.068Z,99476.19
2022-08-25T04:31:31.171Z,99474.34
2022-08-25T04:32:32.915Z,99479.50
2022-08-25T04:33:36.112Z,99473.34
2022-08-25T04:34:37.713Z,99475.81
2022-08-25T04:35:39.289Z,99477.31
2022-08-25T04:36:42.554Z,99474.81
2022-08-25T04:37:44.206Z,99472.97
2022-08-25T04:38:47.439Z,99471.97
2022-08-25T04:39:49.173Z,99474.16
2022-08-25T04:40:58.738Z,99473.16
2022-08-25T04:42:00.936Z,99466.78
2022-08-25T04:43:02.716Z,99477.09
2022-08-25T04:44:04.335Z,99469.75
2022-08-25T04:45:06.554Z,99477.38
2022-08-25T04:46:14.568Z,99472.22
2022-08-25T04:47:22.073Z,99480.50
2022-08-25T04:48:24.341Z,99483.63
2022-08-25T04:49:25.993Z,99484.91
2022-08-25T04:50:27.592Z,99482.25
2022-08-25T04:51:33.982Z,99482.41
2022-08-25T04:52:35.587Z,99482.88
2022-08-25T04:53:38.039Z,99478.19
2022-08-25T04:54:39.700Z,99479.66
2022-08-25T04:55:43.169Z,99480.94
2022-08-25T04:56:45.200Z,99482.03
2022-08-25T04:57:46.803Z,99477.31
2022-08-25T04:58:48.427Z,99479.56
2022-08-25T04:59:50.165Z,99472.13
2022-08-25T05:00:51.856Z,99481.31
2022-08-25T05:01:53.488Z,99474.97
2022-08-25T05:02:55.060Z,99480.94
2022-08-25T05:03:59.438Z,99476.91
2022-08-25T05:05:01.072Z,99473.00
2022-08-25T05:06:03.545Z,99475.66
2022-08-25T05:07:05.562Z,99478.97
2022-08-25T05:08:07.348Z,99474.31
2022-08-25T05:09:09.091Z,99473.56
2022-08-25T05:10:11.635Z,99471.81
2022-08-25T05:11:14.974Z,99477.00
2022-08-25T05:12:17.478Z,99477.47
2022-08-25T05:13:19.078Z,99472.56
2022-08-25T05:14:21.752Z,99480.19
2022-08-25T05:15:27.384Z,99472.66
2022-08-25T05:16:29.747Z,99478.06
2022-08-25T05:17:31.372Z,99476.91
2022-08-25T05:18:34.588Z,99475.09
2022-08-25T05:19:36.210Z,99481.16
2022-08-25T05:20:37.942Z,99469.13
2022-08-25T05:21:40.017Z,99474.34
2022-08-25T05:22:44.797Z,99473.19
2022-08-25T05:23:46.498Z,99468.31
2022-08-25T05:24:48.074Z,99468.59
2022-08-25T05:25:51.115Z,99470.91
2022-08-25T05:26:53.668Z,99469.72
2022-08-25T05:27:55.252Z,99470.78
2022-08-25T05:28:57.940Z,99466.91
2022-08-25T05:29:59.521Z,99470.91
2022-08-25T05:31:02.949Z,99476.91
2022-08-25T05:32:04.702Z,99484.34
2022-08-25T05:33:06.899Z,99479.47
2022-08-25T05:34:08.766Z,99469.84
2022-08-25T05:35:10.358Z,99476.88
2022-08-25T05:36:13.537Z,99473.59
2022-08-25T05:37:15.136Z,99467.63
2022-08-25T05:38:16.820Z,99465.78
2022-08-25T05:39:18.459Z,99466.22
2022-08-25T05:40:20.169Z,99472.84
2022-08-25T05:41:27.324Z,99477.41
2022-08-25T05:42:28.937Z,99474.72
2022-08-25T05:43:31.561Z,99478.03
2022-08-25T05:44:33.165Z,99475.78
2022-08-25T05:45:34.910Z,99481.97
2022-08-25T05:46:36.698Z,99472.66
2022-08-25T05:47:38.404Z,99475.78
2022-08-25T05:48:40.213Z,99478.88
2022-08-25T05:49:41.820Z,99478.88
2022-08-25T05:50:51.679Z,99478.84
2022-08-25T05:51:53.287Z,99473.84
2022-08-25T05:52:54.916Z,99481.06
2022-08-25T05:53:56.556Z,99483.31
2022-08-25T05:54:58.277Z,99485.31
2022-08-25T05:56:00.666Z,99478.91
2022-08-25T05:57:02.273Z,99474.56
2022-08-25T05:58:03.917Z,99465.88
2022-08-25T05:59:09.311Z,99466.66
2022-08-25T06:00:12.058Z,99471.13
2022-08-25T06:01:26.051Z,99466.59
2022-08-25T06:02:27.754Z,99465.53
2022-08-25T06:03:29.818Z,99465.91
2022-08-25T06:04:31.473Z,99461.34
2022-08-25T06:05:33.311Z,99460.91
2022-08-25T06:06:34.916Z,99469.09
2022-08-25T06:07:36.713Z,99470.91
2022-08-25T06:08:38.366Z,99463.84
2022-08-25T06:09:42.290Z,99471.56
2022-08-25T06:10:44.060Z,99467.84
2022-08-25T06:11:51.643Z,99469.41
2022-08-25T06:12:56.731Z,99467.53
2022-08-25T06:13:59.704Z,99460.91
2022-08-25T06:15:01.409Z,99470.31
2022-08-25T06:16:03.251Z,99466.00
2022-08-25T06:17:05.087Z,99470.31
2022-08-25T06:18:06.746Z,99466.63
2022-08-25T06:19:10.009Z,99459.06
2022-08-25T06:20:25.516Z,99469.56
2022-08-25T06:21:27.636Z,99465.03
2022-08-25T06:22:29.225Z,99466.25
2022-08-25T06:23:30.826Z,99466.94
2022-08-25T06:24:32.709Z,99470.94
2022-08-25T06:25:34.358Z,99470.22
2022-08-25T06:26:36.721Z,99472.78
2022-08-25T06:27:38.746Z,99470.19
2022-08-25T06:28:40.894Z,99463.03
2022-08-25T06:29:42.597Z,99476.44
2022-08-25T06:30:44.206Z,99479.59
2022-08-25T06:31:46.182Z,99470.84
2022-08-25T06:32:48.403Z,99475.22
2022-08-25T06:33:50.258Z,99470.91
2022-08-25T06:34:51.877Z,99477.09
2022-08-25T06:35:55.198Z,99474.84
2022-08-25T06:36:56.801Z,99472.59
2022-08-25T06:37:58.438Z,99475.50
2022-08-25T06:39:01.543Z,99470.38
2022-08-25T06:40:04.858Z,99469.34
2022-08-25T06:41:08.817Z,99469.56
2022-08-25T06:42:10.504Z,99472.66
2022-08-25T06:43:12.111Z,99471.84
2022-08-25T06:44:13.722Z,99467.31
2022-08-25T06:45:15.467Z,99463.59
2022-08-25T06:46:35.695Z,99467.72
2022-08-25T06:47:38.272Z,99461.50
2022-08-25T06:48:40.676Z,99463.34
2022-08-25T06:49:43.152Z,99457.34
2022-08-25T06:50:44.851Z,99462.28
2022-08-25T06:51:46.609Z,99461.06
2022-08-25T06:52:48.187Z,99462.94
2022-08-25T06:53:50.884Z,99467.03
2022-08-25T06:54:52.618Z,99465.38
2022-08-25T06:55:58.249Z,99461.03
2022-08-25T06:56:59.834Z,99462.84
2022-08-25T06:58:02.222Z,99464.44
2022-08-25T06:59:08.322Z,99463.19
2022-08-25T07:00:12.338Z,99462.91
2022-08-25T07:01:25.928Z,99463.88
2022-08-25T07:02:27.918Z,99463.72
2022-08-25T07:03:30.911Z,99467.41
2022-08-25T07:04:34.248Z,99464.28
2022-08-25T07:05:43.414Z,99466.94
2022-08-25T07:06:45.673Z,99471.69
2022-08-25T07:07:47.268Z,99470.19
2022-08-25T07:08:49.041Z,99469.56
2022-08-25T07:09:50.629Z,99466.88
2022-08-25T07:10:52.328Z,99464.81
2022-08-25T07:11:53.938Z,99464.56
2022-08-25T07:12:55.527Z,99468.88
2022-08-25T07:13:57.109Z,99469.84
2022-08-25T07:15:18.958Z,99464.28
2022-08-25T07:16:21.481Z,99463.88
2022-08-25T07:17:23.228Z,99468.06
2022-08-25T07:18:26.700Z,99466.38
2022-08-25T07:19:28.619Z,99463.69
2022-08-25T07:20:30.344Z,99469.22
2022-08-25T07:21:35.689Z,99467.13
2022-08-25T07:22:37.580Z,99472.09
2022-08-25T07:23:40.962Z,99469.41
2022-08-25T07:24:42.701Z,99468.50
2022-08-25T07:25:44.371Z,99469.34
2022-08-25T07:26:46.118Z,99463.38
2022-08-25T07:27:48.054Z,99462.84
2022-08-25T07:28:49.905Z,99463.94
2022-08-25T07:29:51.939Z,99459.59
2022-08-25T07:30:53.562Z,99462.69
2022-08-25T07:31:56.171Z,99461.59
2022-08-25T07:32:57.825Z,99461.94
2022-08-25T07:33:59.431Z,99460.16
2022-08-25T07:35:01.307Z,99462.56
2022-08-25T07:36:04.663Z,99464.56
2022-08-25T07:37:06.862Z,99465.72
2022-08-25T07:38:10.214Z,99454.72
2022-08-25T07:39:14.270Z,99451.28
2022-08-25T07:40:22.495Z,99462.47
2022-08-25T07:41:25.577Z,99460.56
2022-08-25T07:42:27.179Z,99460.88
2022-08-25T07:43:29.056Z,99460.16
2022-08-25T07:44:30.747Z,99469.28
2022-08-25T07:45:34.559Z,99465.34
2022-08-25T07:46:36.366Z,99466.41
2022-08-25T07:47:39.316Z,99459.16
2022-08-25T07:48:41.166Z,99456.22
2022-08-25T07:49:42.783Z,99458.72
2022-08-25T07:50:44.916Z,99460.22
2022-08-25T07:52:05.022Z,99455.72
2022-08-25T07:53:09.424Z,99455.63
2022-08-25T07:54:11.181Z,99455.25
2022-08-25T07:55:13.312Z,99453.97
2022-08-25T07:56:19.573Z,99456.00
2022-08-25T07:57:21.271Z,99455.13
2022-08-25T07:58:22.900Z,99459.56
2022-08-25T07:59:24.574Z,99455.50
2022-08-25T08:00:26.960Z,99455.88
2022-08-25T08:01:28.787Z,99453.63
2022-08-25T08:02:31.295Z,99450.34
2022-08-25T08:03:45.100Z,99457.00
2022-08-25T08:04:49.728Z,99452.72
2022-08-25T08:05:51.732Z,99462.47
2022-08-25T08:06:53.308Z,99452.72
2022-08-25T08:07:56.138Z,99451.31
2022-08-25T08:08:57.901Z,99452.81
2022-08-25T08:10:29.645Z,99450.78
2022-08-25T08:11:25.656Z,99449.78
2022-08-25T08:12:28.046Z,99445.91
2022-08-25T08:13:29.649Z,99442.50
2022-08-25T08:14:31.493Z,99443.22
2022-08-25T08:15:33.225Z,99446.38
2022-08-25T08:16:34.984Z,99452.22
2022-08-25T08:17:36.693Z,99445.72
2022-08-25T08:18:39.035Z,99439.22
2022-08-25T08:19:44.897Z,99445.34
2022-08-25T08:20:48.605Z,99448.06
2022-08-25T08:21:50.214Z,99440.56
2022-08-25T08:22:54.494Z,99446.66
2022-08-25T08:23:58.885Z,99440.84
2022-08-25T08:25:02.133Z,99450.84
2022-08-25T08:26:03.845Z,99444.41
2022-08-25T08:27:07.721Z,99443.03
2022-08-25T08:28:10.908Z,99438.97
2022-08-25T08:29:12.641Z,99453.25
2022-08-25T08:30:14.610Z,99447.63
2022-08-25T08:31:16.461Z,99451.66
2022-08-25T08:32:18.593Z,99449.53
2022-08-25T08:33:22.503Z,99456.50
2022-08-25T08:34:24.966Z,99459.72
2022-08-25T08:35:26.833Z,99447.41
2022-08-25T08:36:28.429Z,99447.41
2022-08-25T08:37:32.151Z,99452.47
2022-08-25T08:38:36.603Z,99449.03
2022-08-25T08:39:38.232Z,99450.47
2022-08-25T08:40:51.401Z,99450.56
2022-08-25T08:42:16.806Z,99453.13
2022-08-25T08:43:22.396Z,99455.59
2022-08-25T08:44:29.502Z,99450.09
2022-08-25T08:45:50.049Z,99451.75
2022-08-25T08:47:10.084Z,99453.50
2022-08-25T08:48:30.423Z,99462.69
2022-08-25T08:49:47.018Z,99459.16
2022-08-25T08:51:00.602Z,99459.63
2022-08-25T08:52:04.347Z,99450.47
2022-08-25T08:53:22.781Z,99452.69
2022-08-25T08:54:28.858Z,99447.69
2022-08-25T08:55:40.301Z,99451.75
2022-08-25T08:56:48.198Z,99444.38
2022-08-25T08:57:53.227Z,99452.25
2022-08-25T08:59:05.122Z,99455.06
2022-08-25T09:00:08.201Z,99452.00
2022-08-25T09:01:13.706Z,99442.50
2022-08-25T09:02:39.218Z,99448.75
2022-08-25T09:03:58.725Z,99451.09
2022-08-25T09:05:09.579Z,99444.75
2022-08-25T09:06:24.206Z,99446.75
2022-08-25T09:07:31.596Z,99448.25
2022-08-25T09:08:34.053Z,99445.53
2022-08-25T09:09:39.816Z,99448.91
2022-08-25T09:10:58.043Z,99447.16
2022-08-25T09:12:36.850Z,99449.72
2022-08-25T09:14:13.759Z,99450.41
2022-08-25T09:15:23.884Z,99443.13
2022-08-25T09:16:35.029Z,99458.53
2022-08-25T09:17:42.851Z,99442.19
2022-08-25T09:19:27.385Z,99445.03
2022-08-25T09:20:51.256Z,99446.88
2022-08-25T09:22:35.832Z,99444.22
2022-08-25T09:23:59.018Z,99443.31
2022-08-25T09:25:39.712Z,99439.94
2022-08-25T09:27:01.917Z,99441.34
2022-08-25T09:28:03.467Z,99435.47
2022-08-25T09:29:16.741Z,99440.16
2022-08-25T09:30:21.052Z,99438.50
2022-08-25T09:31:32.551Z,99437.91
2022-08-25T09:32:39.429Z,99431.91
2022-08-25T09:33:41.735Z,99441.88
2022-08-25T09:34:44.827Z,99436.16
2022-08-25T09:35:47.788Z,99431.47
2022-08-25T09:36:51.894Z,99436.41
2022-08-25T09:38:01.314Z,99434.28
2022-08-25T09:39:04.194Z,99434.28
2022-08-25T09:40:06.415Z,99432.75
2022-08-25T09:41:08.908Z,99428.44
2022-08-25T09:42:10.537Z,99431.25
2022-08-25T09:43:23.140Z,99437.00
2022-08-25T09:44:32.329Z,99438.66
2022-08-25T09:45:43.666Z,99435.00
2022-08-25T09:47:13.458Z,99442.50
2022-08-25T09:48:26.349Z,99431.81
2022-08-25T09:49:37.375Z,99436.28
2022-08-25T09:50:41.795Z,99429.84
2022-08-25T09:51:48.410Z,99430.66
2022-08-25T09:52:54.403Z,99428.19
2022-08-25T09:54:19.324Z,99429.81
2022-08-25T09:55:27.360Z,99423.16
2022-08-25T09:56:32.014Z,99423.94
2022-08-25T09:57:43.954Z,99422.31
2022-08-25T09:58:45.644Z,99417.50
2022-08-25T09:59:57.364Z,99420.34
2022-08-25T10:01:11.443Z,99421.03
2022-08-25T10:02:29.687Z,99406.94
2022-08-25T10:03:31.659Z,99419.50
2022-08-25T10:04:40.370Z,99419.50
2022-08-25T10:06:01.551Z,99414.47
2022-08-25T10:07:24.925Z,99411.53
2022-08-25T10:08:34.889Z,99419.38
2022-08-25T10:09:43.398Z,99412.59
2022-08-25T10:10:52.455Z,99411.16
2022-08-25T10:11:57.596Z,99404.38
2022-08-25T10:13:00.717Z,99409.06
2022-08-25T10:14:08.541Z,99401.28
2022-08-25T10:15:30.704Z,99404.63
2022-08-25T10:16:35.654Z,99403.91
2022-08-25T10:17:37.888Z,99401.72
2022-08-25T10:18:40.846Z,99403.91
2022-08-25T10:19:44.529Z,99400.34
2022-08-25T10:21:01.899Z,99401.56
2022-08-25T10:22:06.491Z,99402.22
2022-08-25T10:23:14.217Z,99394.72
2022-08-25T10:24:16.236Z,99396.03
2022-08-25T10:25:59.484Z,99392.44
2022-08-25T10:27:31.858Z,99385.53
2022-08-25T10:28:46.958Z,99385.38
2022-08-25T10:30:24.040Z,99386.75
2022-08-25T10:31:36.893Z,99391.38
2022-08-25T10:33:01.823Z,99385.28
2022-08-25T10:34:35.931Z,99378.41
2022-08-25T10:35:56.141Z,99379.41
2022-08-25T10:37:42.250Z,99386.31
2022-08-25T10:38:54.630Z,99376.72
2022-08-25T10:40:14.251Z,99377.03
2022-08-25T10:41:24.051Z,99378.84
2022-08-25T10:42:34.785Z,99379.22
2022-08-25T10:43:48.986Z,99380.84
2022-08-25T10:45:03.473Z,99381.53
2022-08-25T10:46:13.951Z,99378.50
2022-08-25T10:47:34.293Z,99380.09
2022-08-25T10:49:14.753Z,99380.81
2022-08-25T10:50:41.167Z,99371.13
2022-08-25T10:52:01.187Z,99369.22
2022-08-25T10:53:14.974Z,99373.44
2022-08-25T10:54:42.650Z,99377.97
2022-08-25T10:55:55.440Z,99370.47
2022-08-25T10:57:25.024Z,99369.03
2022-08-25T10:58:44.874Z,99368.88
2022-08-25T11:00:05.474Z,99368.88
2022-08-25T11:01:44.069Z,99362.09
2022-08-25T11:03:12.455Z,99359.06
2022-08-25T11:04:37.348Z,99357.94
2022-08-25T11:06:07.198Z,99357.50
2022-08-25T11:07:31.194Z,99353.88
2022-08-25T11:09:00.573Z,99354.13
2022-08-25T11:10:27.037Z,99348.25
2022-08-25T11:11:58.629Z,99344.63
2022-08-25T11:13:07.012Z,99341.47
2022-08-25T11:14:21.156Z,99340.91
2022-08-25T11:15:28.726Z,99341.22
2022-08-25T11:16:43.615Z,99337.59
2022-08-25T11:18:14.770Z,99329.44
2022-08-25T11:19:42.911Z,99333.59
2022-08-25T11:21:09.983Z,99333.44
2022-08-25T11:22:40.344Z,99333.97
2022-08-25T11:23:49.995Z,99330.00
2022-08-25T11:25:02.258Z,99331.31
2022-08-25T11:26:14.955Z,99319.03
2022-08-25T11:27:24.484Z,99331.31
2022-08-25T11:28:50.959Z,99328.91
2022-08-25T11:30:13.716Z,99323.28
2022-08-25T11:31:17.402Z,99321.38
2022-08-25T11:32:21.247Z,99323.63
2022-08-25T11:33:25.182Z,99325.53
2022-08-25T11:34:31.685Z,99323.44
2022-08-25T11:35:46.766Z,99318.06
2022-08-25T11:36:54.454Z,99317.41
2022-08-25T11:38:22.981Z,99309.63
2022-08-25T11:39:57.497Z,99315.66
2022-08-25T11:41:37.547Z,99313.53
2022-08-25T11:43:00.855Z,99309.50
2022-08-25T11:44:27.413Z,99306.88
2022-08-25T11:46:00.729Z,99303.09
2022-08-25T11:47:32.244Z,99305.19
2022-08-25T11:49:11.631Z,99309.19
2022-08-25T11:50:54.655Z,99306.19
2022-08-25T11:52:02.703Z,99301.09
2022-08-25T11:53:34.298Z,99305.28
2022-08-25T11:54:42.984Z,99300.81
2022-08-25T11:55:51.472Z,99300.03
2022-08-25T11:57:01.819Z,99294.13
2022-08-25T11:58:27.975Z,99295.91
2022-08-25T11:59:50.484Z,99292.91
2022-08-25T12:00:52.474Z,99296.06
2022-08-25T12:01:54.014Z,99297.13
2022-08-25T12:02:59.614Z,99295.50
2022-08-25T12:04:33.565Z,99291.38
2022-08-25T12:05:35.331Z,99298.38
2022-08-25T12:07:07.033Z,99288.84
2022-08-25T12:08:08.923Z,99294.63
2022-08-25T12:09:10.949Z,99291.94
2022-08-25T12:10:24.437Z,99295.28
2022-08-25T12:11:38.266Z,99291.47
2022-08-25T12:12:43.048Z,99297.91
2022-08-25T12:13:47.659Z,99294.56
2022-08-25T12:14:51.599Z,99293.75
2022-08-25T12:15:53.123Z,99293.75
2022-08-25T12:16:54.915Z,99296.72
2022-08-25T12:18:16.506Z,99299.91
2022-08-25T12:19:29.516Z,99301.84
2022-08-25T12:20:53.159Z,99290.25
2022-08-25T12:22:03.213Z,99292.19
2022-08-25T12:23:05.389Z,99287.91
2022-08-25T12:24:13.715Z,99289.84
2022-08-25T12:25:38.213Z,99285.81
2022-08-25T12:26:52.492Z,99294.88
2022-08-25T12:28:27.125Z,99290.84
2022-08-25T12:29:47.160Z,99288.81
2022-08-25T12:30:57.317Z,99283.06
2022-08-25T12:32:21.224Z,99287.41
2022-08-25T12:33:41.136Z,99283.97
2022-08-25T12:34:49.280Z,99283.47
2022-08-25T12:35:59.864Z,99284.09
2022-08-25T12:37:13.102Z,99279.19
2022-08-25T12:38:18.154Z,99285.13
2022-08-25T12:39:24.591Z,99284.53
2022-08-25T12:40:36.724Z,99287.47
2022-08-25T12:41:53.432Z,99282.38
2022-08-25T12:43:11.588Z,99285.94
2022-08-25T12:44:35.259Z,99279.22
2022-08-25T12:45:43.714Z,99281.38
2022-08-25T12:46:45.419Z,99276.50
2022-08-25T12:47:52.249Z,99282.78
2022-08-25T12:48:58.549Z,99278.97
2022-08-25T12:50:37.833Z,99279.19
2022-08-25T12:51:53.753Z,99272.81
2022-08-25T12:53:14.062Z,99280.63
2022-08-25T12:54:43.408Z,99270.81
2022-08-25T12:55:56.329Z,99265.59
2022-08-25T12:57:00.899Z,99264.75
2022-08-25T12:58:04.862Z,99262.81
2022-08-25T12:59:15.741Z,99264.44
2022-08-25T13:01:55.981Z,99260.47
2022-08-25T13:03:28.586Z,99261.41
2022-08-25T13:04:55.046Z,99259.25
2022-08-25T13:06:18.326Z,99266.13
2022-08-25T13:07:36.833Z,99251.47
2022-08-25T13:09:08.264Z,99254.00